Vers la page d'accueil de NAV CANADA Ouverture d'une nouvelle session Chercher sur le site AWWS Clause de non-reponsabilité To the equivalent English page Trucs et astuces FAQ Quoi de neuf sur le site Vers la section Prévisions et observations / NOTAM Vers le site web pour <<Déposer un plan de vol>> Publications et liens importants Mise à jour du profil d'usager Numéros de téléphone des FIC Mes données météo personnelles Données météo de route Données météo régionales Données météo locales Vers la section Prévisions et observations / NOTAM
Requête générée le 2022/06/30 à 10:23:41 UTC. L'information météorologique disponible à ce moment est affichée.

METAR/TAF

Si vous notez des différences entre le METAR/TAF codé et le METAR/TAF en langage clair, veuillez utiliser la version codée. Les bulletins LWIS ne sont pas décodés en langage clair.

MONTREAL/ST-HUBERT/QC    (voir Cam météo)

METAR CYHU 301000Z AUTO 27004KT 9SM BKN066 14/12 A3022 RMK SLP235=
METAR
LIEU
CYHU - MONTREAL/ST-HUBERT/QC
DATE - HEURE
30 JUIN 2022 - 1000 UTC
VENT
270 VRAIS @ 4  NOEUDS
VISIBILITE
9 MILLES TERR.
PORTEE VISUELLE DE PISTE
METEO
NEBULOSITE
NUAGES FRAGMENTES (5/8 - 7/8) 6600  PI
TEMP / PT DE ROSEE
14 C / 12 C
ALTIMETRE
30.22 PO HG
TEMPS RECENT
CISAILLEMENT

METAR CYHU 300900Z AUTO 26003KT 9SM FEW060 12/11 A3020 RMK SLP229=
METAR
LIEU
CYHU - MONTREAL/ST-HUBERT/QC
DATE - HEURE
30 JUIN 2022 - 0900 UTC
VENT
260 VRAIS @ 3  NOEUDS
VISIBILITE
9 MILLES TERR.
PORTEE VISUELLE DE PISTE
METEO
NEBULOSITE
QUELQUES NUAGES (1/8 - 2/8) 6000  PI
TEMP / PT DE ROSEE
12 C / 11 C
ALTIMETRE
30.20 PO HG
TEMPS RECENT
CISAILLEMENT

SPECI CYHU 300839Z AUTO 26003KT 150V260 9SM SCT060 12/11 A3018 RMK SLP224=
SPECI
LIEU
CYHU - MONTREAL/ST-HUBERT/QC
DATE - HEURE
30 JUIN 2022 - 0839 UTC
VENT
260 VRAIS @ 3  NOEUDS
VARIATION
150 <-> 260  DEG
VISIBILITE
9 MILLES TERR.
PORTEE VISUELLE DE PISTE
METEO
NEBULOSITE
NUAGES EPARS (3/8 - 4/8) 6000  PI
TEMP / PT DE ROSEE
12 C / 11 C
ALTIMETRE
30.18 PO HG
TEMPS RECENT
CISAILLEMENT

SPECI CYHU 300828Z AUTO VRB02KT 5SM BR FEW060 12/10 A3019 RMK SLP225=
SPECI
LIEU
CYHU - MONTREAL/ST-HUBERT/QC
DATE - HEURE
30 JUIN 2022 - 0828 UTC
VENT
VRB @ 2  NOEUDS
VISIBILITE
5 MILLES TERR.
PORTEE VISUELLE DE PISTE
METEO
BRUME
NEBULOSITE
QUELQUES NUAGES (1/8 - 2/8) 6000  PI
TEMP / PT DE ROSEE
12 C / 10 C
ALTIMETRE
30.19 PO HG
TEMPS RECENT
CISAILLEMENT

METAR CYHU 300800Z AUTO 09004KT 9SM CLR 12/11 A3018 RMK SLP222=
METAR
LIEU
CYHU - MONTREAL/ST-HUBERT/QC
DATE - HEURE
30 JUIN 2022 - 0800 UTC
VENT
90 VRAIS @ 4  NOEUDS
VISIBILITE
9 MILLES TERR.
PORTEE VISUELLE DE PISTE
METEO
NEBULOSITE
CIEL DEGAGE
TEMP / PT DE ROSEE
12 C / 11 C
ALTIMETRE
30.18 PO HG
TEMPS RECENT
CISAILLEMENT

Votre heure Heure UTC
Données météorologiques fournies par Environnement Canada et NAV CANADA